• Join FlightAware (Why Join?)
  • Login
  • US Flag 
Rudolph Flight #1: Arrived! 
10:35AM EST


 

Airport Tracker/Info


-or-


 

Live Flight TrackerFlight Track Log ✈ RPA4907 ✈ 09-Jul-2013 ✈ KBWI - KEWR

Flight Track Log - Related Links

Times and Time Zones

All times are in EDT time to prevent confusion due to time zone crossing. See the RPA4907 flight status page for this flight to view local times or setup timezone preferences in your user account.

Time Position Orientation Groundspeed Altitude Reporting Facility
EDT Latitude Longitude Course Direction KTS MPH feet Rate Location/Type
02:46PM 39.2000 -76.7167 38° Northeast 203 234 2,200  Level Potomac TRACON
02:47PM 39.2500 -76.6667 38° Northeast 248 285 4,000 1,980 Climbing Potomac TRACON
02:48PM 39.2333 -76.5833 104° East 249 287 6,200 2,100 Climbing Potomac TRACON
02:49PM 39.2167 -76.5000 104° East 250 288 8,300 1,440 Climbing Potomac TRACON
02:51PM 39.2167 -76.3000 90° East 297 342 10,700 840 Climbing Potomac TRACON
02:52PM 39.2667 -76.2167 52° Northeast 320 368 11,000 60 Climbing Potomac TRACON
02:54PM 39.4000 -75.9833 53° Northeast 332 382 11,000  Level Philadelphia TRACON
02:55PM 39.4667 -75.8833 49° Northeast 335 386 11,000  Level Philadelphia TRACON
02:56PM 39.5167 -75.7833 57° Northeast 343 395 11,000  Level Philadelphia TRACON
02:57PM 39.5833 -75.7167 38° Northeast 336 387 11,000  Level Philadelphia TRACON
02:58PM 39.6667 -75.6333 38° Northeast 335 386 11,000  Level Philadelphia TRACON
02:59PM 39.7000 -75.5333 67° East 334 384 11,000 -540 Level Philadelphia TRACON
03:00PM 39.7333 -75.4167 70° East 344 396 10,000 -540 Descending Philadelphia TRACON
03:01PM 39.7667 -75.3000 70° East 335 386 10,000 -600 Level Philadelphia TRACON
03:02PM 39.8000 -75.2000 67° East 302 348 8,900 -1,020 Descending Philadelphia TRACON
03:03PM 39.8333 -75.0833 70° East 295 339 8,000 -480 Descending Philadelphia TRACON
03:04PM 39.8667 -74.9833 66° East 287 330 8,000 -240 Level Philadelphia TRACON
03:05PM 39.9167 -74.9000 52° Northeast 290 334 7,500 -480 Descending Philadelphia TRACON
03:07PM 39.9833 -74.8167 44° Northeast 282 325 7,000 -240 Descending New York TRACON
03:08PM 40.0333 -74.7333 52° Northeast 284 327 7,000  Level New York TRACON
03:09PM 40.1000 -74.6500 44° Northeast 284 327 7,000  Level New York TRACON
03:10PM 40.1500 -74.5667 52° Northeast 286 329 7,000  Level New York TRACON
03:11PM 40.2000 -74.5000 46° Northeast 284 327 7,000 -480 Level New York TRACON
03:12PM 40.2667 -74.4667 21° North 277 319 6,100 -720 Descending New York TRACON
03:13PM 40.3333 -74.4667 360° North 263 303 5,600 -600 Descending New York TRACON
03:14PM 40.4167 -74.5000 343° North 257 296 5,000 -300 Descending New York TRACON
03:15PM 40.4833 -74.5167 349° North 265 305 5,000  Level New York TRACON
03:16PM 40.5500 -74.5167 360° North 270 311 5,000  Level New York TRACON
03:17PM 40.6333 -74.5167 360° North 263 303 5,000  Level New York TRACON
03:18PM 40.7000 -74.5167 360° North 262 302 5,000  Level New York TRACON
03:19PM 40.7667 -74.4833 21° North 265 305 5,000  Level New York TRACON
03:20PM 40.8333 -74.4333 30° Northeast 269 310 5,000  Level New York TRACON
03:21PM 40.9000 -74.4000 21° North 271 312 5,000  Level New York TRACON
03:22PM 40.9667 -74.3500 30° Northeast 276 318 5,000  Level New York TRACON
03:23PM 41.0333 -74.3000 29° Northeast 284 327 5,000 -240 Level New York TRACON
03:24PM 41.0000 -74.2000 114° Southeast 275 316 4,600 -540 Descending New York TRACON
03:25PM 40.9500 -74.1500 143° Southeast 256 295 4,000 -600 Descending New York TRACON
03:26PM 40.8833 -74.1000 150° Southeast 253 291 3,400 -600 Descending New York TRACON